Airfield :
LOGIN :

Register | Disclaimer

   EN    FR    IT 

 










Legend :    VFR   Marginal VFR   IFR   Intensive IFR   Very Intensive IFR
Visi :
Ceiling :
>= 8 km
>= 3000ft
5 to 8 km
1000 to 3000 ft
1500m to 5 km
500 to 1000 ft
800 to 1500m
200 to 500 ft
< 800m
< 200 ft
Symbols :   Thunderstorms  Fog  Heavy snow  Heavy precipitations  Wind > 20 kt
SIGMETs :     Misc.  Thunderstorms  Icing  Turbulence  Mountain Waves  Volcanic Ashes






- Airport Elevation : 1247 ft
- IATA code : PRG


LKPR - Praha Ruzyne

CURRENT METAR :
  • 212100Z 19010KT 9999 FEW020 BKN048 07/05 Q1009 NOSIG

EXPIRED METARs :
  • 212030Z 19009KT 9999 FEW006 SCT020 OVC046 07/05 Q1009 NOSIG
  • 212018Z 19008KT 9999 SCT007 BKN020 07/05 Q1009 RMK REG QNH 1006
  • 212000Z 20009KT 160V220 9999 BKN006 BKN015 07/06 Q1009 NOSIG
  • 211942Z 19008KT 9999 -DZ BKN006 BKN013 OVC030 07/06 Q1009 RMK REG QNH 1006
  • 211930Z 19008KT 9999 -DZ SCT005 BKN013 OVC030 07/06 Q1008 NOSIG
  • 211914Z 19008KT 9999 FEW004 BKN005 OVC030 07/06 Q1008 RMK REG QNH 1006
  • 211900Z 19008KT 9999 FEW004 BKN007 OVC030 08/07 Q1008 TEMPO BKN004
  • 211848Z 16008KT 9000 FEW004 BKN013 OVC026 08/07 Q1008 RMK REG QNH 1006
  • 211839Z 16007KT 9000 FEW005 BKN016 OVC026 08/07 Q1008 RMK REG QNH 1006
  • 211830Z 16007KT 9999 -RA FEW008 SCT018 OVC028 08/07 Q1008 NOSIG

TAF TAF LKPR
Valid from the 21 at 18:00 until the 23 at 00:00 UTC


211700Z 2118/2300 20008KT 5000 BR SCT005 OVC016
TEMPO 2118/2202 2500 BR BKN005 OVC013
BECMG 2123/2201 VRB02KT
BECMG 2202/2204 1200 BR BKN003
PROB30
TEMPO 2204/2208 0600 FG BKN001
BECMG 2208/2211 14004KT 5000 BR SCT005 BKN020



MET'MAP, your aeronautical weather chart ! - Copyright ORBIFLY December 2007 - Disclaimer

ORBIFLY MET'MAP TEAM :

Programming & Development : Alexandra Zaïnal
Concept & Development : Baudouin d'Aumeries
Co-Development & Prog : Marc-Olivier Méhu
Technical & hardware support : Manuel Goepfert

Contact : metmap@orbifly.com




SOURCES & CREDITS :

   NOAA